Time;durP1;ratioP1;P1;durP2;ratioP2;P2;SDS_P1;SDS_P2;PMS_P1;PMS_P2;Temp;Humidity;BMP_temperature;BMP_pressure;BME280_temperature;BME280_humidity;BME280_pressure;Samples;Min_cycle;Max_cycle;Signal;HPM_P1;HPM_P2
2022/12/02 00:52:07;;;;;;;;;38.00;33.33;;;;;9.91;68.34;-19477.47;6304729;22;45553;-83
2022/12/02 00:55:08;;;;;;;;;39.67;32.00;;;;;8.63;67.95;-19443.69;6304031;22;45437;-82
2022/12/02 00:57:34;;;;;;;;;36.00;31.67;;;;;9.39;68.14;-19463.69;6304654;22;45326;-83
2022/12/02 01:00:00;;;;;;;;;40.67;31.00;;;;;9.84;68.22;-19475.56;6305303;22;45443;-82
2022/12/02 01:02:25;;;;;;;;;42.67;35.67;;;;;9.94;68.36;-19478.28;6304237;22;45276;-82
2022/12/02 01:04:50;;;;;;;;;27.67;27.67;;;;;9.93;68.27;-19477.88;6305008;22;45740;-83
2022/12/02 01:07:16;;;;;;;;;29.33;28.67;;;;;9.71;68.58;-19472.06;6302508;22;45276;-83
2022/12/02 01:09:41;;;;;;;;;35.67;32.00;;;;;9.96;68.39;-19478.53;6304227;22;45607;-82
2022/12/02 01:12:07;;;;;;;;;35.67;30.67;;;;;9.70;68.12;-19471.94;6303857;22;45465;-83
2022/12/02 01:14:33;;;;;;;;;34.67;32.00;;;;;9.93;68.20;-19477.88;6276180;22;45378;-82
2022/12/02 01:16:58;;;;;;;;;36.67;32.33;;;;;9.49;68.36;-19466.25;6303904;22;45389;-83
2022/12/02 01:19:24;;;;;;;;;32.67;29.33;;;;;9.86;68.48;-19476.13;6305359;22;45596;-83
2022/12/02 01:21:50;;;;;;;;;36.33;32.67;;;;;9.82;68.45;-19474.91;6303196;22;46287;-83
2022/12/02 01:24:15;;;;;;;;;33.67;29.67;;;;;9.65;68.36;-19470.44;6304652;22;45377;-82
2022/12/02 01:26:40;;;;;;;;;38.67;31.67;;;;;9.60;68.23;-19469.09;6276629;22;45469;-82
2022/12/02 01:29:06;;;;;;;;;39.67;32.67;;;;;9.30;68.14;-19461.25;6305152;22;45311;-82
2022/12/02 01:31:32;;;;;;;;;35.33;32.00;;;;;9.89;68.29;-19476.78;6303769;22;46227;-82
2022/12/02 01:33:57;;;;;;;;;36.00;33.33;;;;;9.65;68.23;-19470.56;6304198;22;45378;-82
2022/12/02 01:36:23;;;;;;;;;36.67;32.00;;;;;9.90;68.60;-19477.06;6303933;22;45338;-83
2022/12/02 01:38:48;;;;;;;;;39.00;33.33;;;;;9.56;68.49;-19468.00;6304912;22;45374;-82
2022/12/02 01:41:13;;;;;;;;;42.00;35.00;;;;;9.88;68.17;-19476.50;6276260;22;47198;-82
2022/12/02 01:43:39;;;;;;;;;35.00;30.67;;;;;9.65;68.32;-19470.44;6304785;22;45523;-82
2022/12/02 01:46:04;;;;;;;;;32.00;25.33;;;;;9.87;68.06;-19476.38;6304342;22;45298;-82
2022/12/02 01:48:30;;;;;;;;;38.67;32.67;;;;;9.37;68.19;-19463.16;6304380;22;45319;-81
2022/12/02 01:50:56;;;;;;;;;30.67;24.67;;;;;9.87;68.26;-19476.38;6275436;22;47288;-82
2022/12/02 01:53:23;;;;;;;;;35.00;33.33;;;;;9.78;68.06;-19473.94;6303837;22;45358;-82
2022/12/02 01:55:49;;;;;;;;;43.00;35.00;;;;;9.61;68.48;-19469.38;6304354;22;45381;-82
2022/12/02 01:58:18;;;;;;;;;36.67;31.33;;;;;9.50;68.05;-19466.53;6302864;22;45331;-83
2022/12/02 02:00:43;;;;;;;;;35.00;32.33;;;;;9.56;68.06;-19468.00;6303987;22;46232;-82
2022/12/02 02:03:09;;;;;;;;;29.67;29.67;;;;;9.77;68.11;-19473.56;6303359;22;45306;-83
2022/12/02 02:05:35;;;;;;;;;39.67;31.67;;;;;9.89;67.88;-19476.91;6304081;22;45267;-82
2022/12/02 02:08:09;;;;;;;;;41.67;33.00;;;;;9.58;67.84;-19468.56;6305541;22;45382;-82
2022/12/02 02:10:37;;;;;;;;;39.67;33.00;;;;;9.89;67.96;-19476.91;6304921;22;46690;-82
2022/12/02 02:13:03;;;;;;;;;41.00;34.33;;;;;9.55;67.84;-19467.88;6304974;22;45422;-82
2022/12/02 02:15:30;;;;;;;;;35.00;33.00;;;;;9.88;67.92;-19476.50;6305358;22;45581;-82
2022/12/02 02:17:56;;;;;;;;;39.33;31.67;;;;;9.86;67.99;-19476.13;6305348;22;45442;-82
2022/12/02 02:20:24;;;;;;;;;30.67;29.00;;;;;9.75;67.71;-19473.13;6304243;22;46607;-82
2022/12/02 02:22:53;;;;;;;;;36.00;30.00;;;;;9.75;67.78;-19473.13;6305219;22;45284;-82
2022/12/02 02:25:19;;;;;;;;;36.00;31.67;;;;;9.44;67.58;-19465.03;6305140;22;45387;-82
2022/12/02 02:27:53;;;;;;;;;35.00;30.33;;;;;9.54;67.75;-19467.47;6305434;22;45267;-82
2022/12/02 02:30:19;;;;;;;;;40.67;33.00;;;;;9.85;67.88;-19475.72;6304647;22;46500;-82
2022/12/02 02:32:45;;;;;;;;;35.67;32.00;;;;;9.85;67.65;-19475.72;6303796;22;45362;-82
2022/12/02 02:35:11;;;;;;;;;33.33;28.00;;;;;9.84;67.49;-19475.44;6304391;22;45492;-82
2022/12/02 02:37:37;;;;;;;;;38.00;32.33;;;;;9.85;67.36;-19475.72;6305285;22;45426;-82
2022/12/02 02:40:04;;;;;;;;;36.00;31.00;;;;;9.84;67.64;-19475.56;6304736;22;46373;-81
2022/12/02 02:42:29;;;;;;;;;31.33;27.00;;;;;9.85;67.77;-19475.84;6304480;22;45318;-81
2022/12/02 02:44:55;;;;;;;;;36.33;30.00;;;;;9.65;67.41;-19470.44;6277518;22;45310;-82
2022/12/02 02:47:20;;;;;;;;;34.00;29.33;;;;;9.61;67.83;-19469.50;6304160;22;45413;-82
2022/12/02 02:49:46;;;;;;;;;34.67;29.00;;;;;9.84;67.48;-19475.44;6303675;22;47105;-82
2022/12/02 02:52:12;;;;;;;;;32.33;30.00;;;;;9.83;67.51;-19475.16;6304333;22;45730;-83
2022/12/02 02:54:37;;;;;;;;;35.00;29.00;;;;;9.83;67.59;-19475.16;6304913;22;45412;-82
2022/12/02 02:57:02;;;;;;;;;29.00;29.00;;;;;9.64;67.57;-19470.31;6304261;22;45767;-82
2022/12/02 02:59:28;;;;;;;;;34.67;29.00;;;;;9.71;67.65;-19472.19;6304665;22;47076;-82
2022/12/02 03:01:54;;;;;;;;;38.67;29.33;;;;;9.65;67.24;-19470.44;6304305;22;45403;-82
2022/12/02 03:04:22;;;;;;;;;33.00;30.67;;;;;9.72;67.57;-19472.34;6275358;22;45584;-82
2022/12/02 03:06:49;;;;;;;;;29.67;26.67;;;;;9.82;67.75;-19475.03;6304753;22;45517;-81
2022/12/02 03:09:19;;;;;;;;;37.33;31.67;;;;;9.76;67.52;-19473.28;6304788;22;46431;-82
2022/12/02 03:11:48;;;;;;;;;37.33;32.67;;;;;9.86;67.49;-19475.97;6304245;22;45574;-81
2022/12/02 03:14:16;;;;;;;;;38.00;33.00;;;;;9.84;67.59;-19475.56;6304678;22;45444;-82
2022/12/02 03:16:43;;;;;;;;;36.67;30.67;;;;;9.60;67.66;-19469.22;6304434;22;45292;-82
2022/12/02 03:19:09;;;;;;;;;36.00;31.00;;;;;9.86;67.19;-19476.13;6303577;22;45668;-83
2022/12/02 03:21:35;;;;;;;;;34.33;28.67;;;;;9.79;67.26;-19474.22;6304941;22;45312;-82
2022/12/02 03:24:03;;;;;;;;;33.00;29.00;;;;;9.85;67.28;-19475.84;6303547;22;45489;-82
2022/12/02 03:26:29;;;;;;;;;30.33;27.33;;;;;9.85;67.43;-19475.84;6303522;22;45339;-82
2022/12/02 03:28:56;;;;;;;;;36.33;27.33;;;;;9.85;67.25;-19475.84;6304984;22;45974;-81
2022/12/02 03:31:23;;;;;;;;;37.67;31.67;;;;;9.86;67.08;-19475.97;6304721;22;45604;-82
2022/12/02 03:33:50;;;;;;;;;29.67;28.00;;;;;9.76;67.27;-19473.28;6303335;22;45660;-82
2022/12/02 03:36:15;;;;;;;;;31.00;29.00;;;;;9.87;67.10;-19476.38;6304349;22;45352;-82
2022/12/02 03:38:41;;;;;;;;;39.33;32.00;;;;;9.35;67.21;-19462.59;6303849;22;45994;-82
2022/12/02 03:41:08;;;;;;;;;31.33;30.67;;;;;9.59;67.59;-19468.81;6304671;22;45396;-82
2022/12/02 03:43:34;;;;;;;;;37.00;32.00;;;;;9.78;67.39;-19473.81;6304318;22;45338;-82
2022/12/02 03:46:00;;;;;;;;;30.67;28.33;;;;;9.32;66.87;-19461.81;6304289;22;45309;-83
2022/12/02 03:48:26;;;;;;;;;36.00;31.00;;;;;9.60;67.38;-19469.09;6303847;22;46430;-82
2022/12/02 03:50:52;;;;;;;;;30.00;27.33;;;;;9.66;67.36;-19470.84;6304073;22;45395;-82
2022/12/02 03:53:19;;;;;;;;;32.33;26.67;;;;;9.71;67.46;-19472.19;6304799;22;45339;-82
2022/12/02 03:55:46;;;;;;;;;37.33;30.33;;;;;9.48;67.46;-19465.97;6304666;22;45370;-82
2022/12/02 03:58:12;;;;;;;;;32.00;25.00;;;;;9.58;67.11;-19468.69;6302835;22;45322;-82
2022/12/02 04:00:38;;;;;;;;;29.00;25.00;;;;;9.49;67.04;-19466.38;6303649;22;45400;-82
2022/12/02 04:03:04;;;;;;;;;37.33;26.67;;;;;9.78;67.13;-19473.94;6304212;22;45272;-82
2022/12/02 04:05:30;;;;;;;;;33.33;30.67;;;;;9.47;67.24;-19465.72;6304617;22;45588;-83
2022/12/02 04:07:55;;;;;;;;;34.33;29.67;;;;;9.80;67.17;-19474.34;6304479;22;46648;-82
2022/12/02 04:10:21;;;;;;;;;28.67;26.33;;;;;9.85;67.45;-19475.84;6304251;22;45318;-81
2022/12/02 04:12:46;;;;;;;;;31.67;28.00;;;;;9.41;67.15;-19464.09;6305540;22;45298;-82
2022/12/02 04:15:12;;;;;;;;;34.67;26.67;;;;;9.85;67.42;-19475.72;6304608;22;45370;-82
2022/12/02 04:17:38;;;;;;;;;38.33;31.00;;;;;9.36;67.33;-19462.88;6304612;22;49499;-83
2022/12/02 04:20:05;;;;;;;;;24.00;19.67;;;;;9.85;67.10;-19475.84;6304143;22;45751;-82
2022/12/02 04:22:30;;;;;;;;;32.67;30.33;;;;;9.86;67.01;-19475.97;6304717;22;45335;-82
2022/12/02 04:24:59;;;;;;;;;35.00;28.67;;;;;9.87;67.04;-19476.38;6305352;22;45685;-82
2022/12/02 04:27:25;;;;;;;;;32.00;28.67;;;;;9.63;66.96;-19469.91;6304527;22;46110;-82
2022/12/02 04:29:51;;;;;;;;;33.33;30.67;;;;;9.86;67.02;-19475.97;6304276;22;45304;-83
2022/12/02 04:32:18;;;;;;;;;35.00;28.67;;;;;9.16;67.10;-19457.63;6304555;22;45285;-81
2022/12/02 04:34:43;;;;;;;;;34.67;27.00;;;;;9.73;67.20;-19472.72;6303765;22;45657;-82
2022/12/02 04:37:09;;;;;;;;;35.00;28.00;;;;;9.56;67.53;-19468.00;6303402;22;47391;-81
2022/12/02 04:39:35;;;;;;;;;34.67;32.00;;;;;9.31;67.12;-19461.53;6275494;22;45437;-82
2022/12/02 04:42:01;;;;;;;;;39.00;32.00;;;;;9.36;67.02;-19462.88;6304369;22;45406;-81
2022/12/02 04:44:27;;;;;;;;;38.33;32.33;;;;;9.63;67.53;-19470.03;6303460;22;45326;-81
2022/12/02 04:46:54;;;;;;;;;35.67;29.33;;;;;9.75;67.09;-19473.00;6303485;22;46071;-81
2022/12/02 04:49:19;;;;;;;;;37.33;31.00;;;;;9.85;67.35;-19475.84;6303956;22;45406;-81
2022/12/02 04:51:44;;;;;;;;;41.00;32.00;;;;;9.53;67.26;-19467.34;6304175;22;45427;-81
2022/12/02 04:54:10;;;;;;;;;31.67;29.33;;;;;9.67;67.20;-19470.97;6303629;22;45441;-81
2022/12/02 04:56:36;;;;;;;;;45.50;31.50;;;;;9.86;67.39;-19476.13;6304067;22;46164;-81
2022/12/02 04:59:01;;;;;;;;;28.33;26.33;;;;;9.80;67.16;-19474.34;6302980;22;45745;-81
2022/12/02 05:01:27;;;;;;;;;36.67;31.67;;;;;9.85;66.94;-19475.72;6275545;22;45773;-81
2022/12/02 05:03:52;;;;;;;;;42.33;34.33;;;;;9.85;67.23;-19475.72;6303983;22;45375;-82
2022/12/02 05:06:17;;;;;;;;;35.67;30.33;;;;;9.73;67.32;-19472.72;6303952;22;45921;-80
2022/12/02 05:08:43;;;;;;;;;40.33;32.33;;;;;9.60;67.42;-19469.09;6303552;22;45770;-81
2022/12/02 05:11:08;;;;;;;;;40.33;29.67;;;;;9.78;66.97;-19473.94;6301581;22;45587;-82
2022/12/02 05:13:34;;;;;;;;;37.67;32.00;;;;;9.84;67.03;-19475.44;6303752;22;45393;-81
2022/12/02 05:15:59;;;;;;;;;37.67;32.33;;;;;9.83;67.14;-19475.16;6275492;22;47104;-82
2022/12/02 05:18:25;;;;;;;;;29.33;27.00;;;;;9.04;67.38;-19454.50;6303406;22;45348;-81
2022/12/02 05:20:50;;;;;;;;;35.33;31.33;;;;;9.85;67.08;-19475.72;6303862;22;45388;-81
2022/12/02 05:23:15;;;;;;;;;39.33;34.33;;;;;9.83;67.37;-19475.31;6304238;22;45410;-80
2022/12/02 05:25:41;;;;;;;;;40.33;33.67;;;;;9.62;66.96;-19469.78;6302182;22;47328;-82
2022/12/02 05:28:06;;;;;;;;;35.67;31.33;;;;;9.64;67.47;-19470.31;6303959;22;45393;-81
2022/12/02 05:30:31;;;;;;;;;37.33;32.67;;;;;9.76;67.31;-19473.28;6304400;22;45470;-81
2022/12/02 05:32:57;;;;;;;;;33.00;31.33;;;;;9.62;67.28;-19469.78;6302624;22;45576;-81
2022/12/02 05:35:22;;;;;;;;;28.67;26.00;;;;;9.76;67.33;-19473.41;6302626;22;46129;-82
2022/12/02 05:37:47;;;;;;;;;37.67;32.00;;;;;9.73;66.86;-19472.72;6303557;22;45351;-81
2022/12/02 05:40:13;;;;;;;;;29.33;23.33;;;;;9.80;67.10;-19474.34;6304131;22;45416;-80
2022/12/02 05:42:40;;;;;;;;;31.33;29.00;;;;;9.61;67.03;-19469.38;6303385;22;45369;-81
2022/12/02 05:45:14;;;;;;;;;40.67;32.33;;;;;9.75;67.11;-19473.13;6302698;22;45705;-81
2022/12/02 05:47:40;;;;;;;;;30.67;26.33;;;;;9.84;67.25;-19475.56;6303496;22;45377;-81
2022/12/02 05:50:11;;;;;;;;;37.67;31.33;;;;;9.61;67.31;-19469.50;6303155;22;45332;-81
2022/12/02 05:52:37;;;;;;;;;33.00;30.67;;;;;9.60;67.42;-19469.09;6304431;22;45498;-82
2022/12/02 05:55:14;;;;;;;;;36.33;32.00;;;;;9.45;67.43;-19465.19;6302648;22;46518;-82
2022/12/02 05:57:40;;;;;;;;;34.33;32.33;;;;;9.63;67.43;-19470.03;6302155;22;45382;-82
2022/12/02 06:00:08;;;;;;;;;37.67;31.67;;;;;9.83;67.49;-19475.16;6302826;22;45642;-82
2022/12/02 06:02:39;;;;;;;;;31.33;29.33;;;;;9.62;67.15;-19469.63;6303423;22;45667;-80
2022/12/02 06:05:14;;;;;;;;;34.00;31.00;;;;;9.41;67.34;-19464.22;6303790;22;46148;-82
2022/12/02 06:07:39;;;;;;;;;36.33;30.00;;;;;9.53;67.27;-19467.34;6303864;22;45611;-81
2022/12/02 06:10:37;;;;;;;;;36.00;31.67;;;;;9.54;67.44;-19467.59;6303610;22;45422;-82
2022/12/02 06:13:34;;;;;;;;;46.33;34.00;;;;;9.72;67.54;-19472.47;6301677;22;45291;-82
2022/12/02 06:16:00;;;;;;;;;32.67;30.67;;;;;9.85;67.76;-19475.84;6285007;22;45862;-82
2022/12/02 06:18:32;;;;;;;;;37.00;28.67;;;;;9.31;67.23;-19461.53;6301486;22;45844;-82
2022/12/02 06:21:01;;;;;;;;;40.67;33.00;;;;;9.66;67.57;-19470.84;6303121;22;45743;-83
2022/12/02 06:23:30;;;;;;;;;26.67;23.67;;;;;9.84;67.30;-19475.44;6303799;22;45352;-83
2022/12/02 06:25:56;;;;;;;;;35.33;34.00;;;;;9.84;67.40;-19475.56;6301237;22;45714;-80
2022/12/02 06:28:30;;;;;;;;;43.67;33.33;;;;;9.68;67.40;-19471.38;6297527;22;45378;-81
2022/12/02 06:31:00;;;;;;;;;42.67;35.67;;;;;9.45;67.24;-19465.31;6302348;22;45354;-82
2022/12/02 06:33:31;;;;;;;;;43.00;32.00;;;;;8.93;67.16;-19451.53;6274877;22;45437;-82
2022/12/02 06:36:00;;;;;;;;;39.00;30.00;;;;;9.88;67.59;-19476.50;6274531;22;47873;-82
2022/12/02 06:38:37;;;;;;;;;39.67;32.33;;;;;9.87;67.47;-19476.38;6274657;22;45820;-81
2022/12/02 06:41:14;;;;;;;;;45.67;35.00;;;;;9.34;67.36;-19462.34;6301807;22;45532;-82
2022/12/02 06:43:39;;;;;;;;;38.33;32.67;;;;;9.91;67.66;-19477.47;6302068;22;45730;-83
2022/12/02 06:49:20;;;;;;;;;34.33;32.67;;;;;9.54;67.28;-19467.59;6328289;22;45358;-82
2022/12/02 06:51:57;;;;;;;;;37.33;32.67;;;;;9.47;67.71;-19465.84;6306039;22;45708;-81
2022/12/02 06:54:27;;;;;;;;;42.00;34.33;;;;;9.92;67.71;-19477.59;6336199;22;45405;-82
2022/12/02 06:56:56;;;;;;;;;34.00;32.00;;;;;9.72;67.40;-19472.34;6335189;22;46171;-83
2022/12/02 06:59:23;;;;;;;;;40.00;34.67;;;;;9.36;67.62;-19462.75;6335595;22;45370;-83
2022/12/02 07:01:55;;;;;;;;;37.33;28.67;;;;;9.74;67.36;-19472.88;6333940;22;45310;-83
2022/12/02 07:04:35;;;;;;;;;45.00;34.67;;;;;8.29;67.21;-19434.50;6336196;22;45473;-82
2022/12/02 07:07:55;;;;;;;;;37.33;34.33;;;;;9.56;67.33;-19468.00;6335912;22;45704;-82
2022/12/02 07:10:26;;;;;;;;;37.33;32.33;;;;;9.93;67.19;-19477.88;6238261;22;45831;-81
2022/12/02 07:13:17;;;;;;;;;39.00;34.00;;;;;9.38;67.31;-19463.41;6227049;22;45697;-82
2022/12/02 07:15:42;;;;;;;;;36.33;34.00;;;;;8.77;67.21;-19447.22;6239186;22;45672;-81
2022/12/02 07:18:15;;;;;;;;;32.00;30.67;;;;;9.71;67.33;-19472.06;6239511;22;46202;-82
2022/12/02 07:20:43;;;;;;;;;38.00;33.67;;;;;9.80;67.51;-19474.34;6239733;22;45599;-82
2022/12/02 07:23:23;;;;;;;;;43.00;36.00;;;;;9.82;67.75;-19474.91;6239524;22;45585;-83
2022/12/02 07:25:55;;;;;;;;;39.67;34.33;;;;;9.92;67.40;-19477.59;6240106;22;45901;-82
2022/12/02 07:28:26;;;;;;;;;43.67;35.00;;;;;9.92;67.66;-19477.72;6240539;22;45621;-82
2022/12/02 07:30:56;;;;;;;;;45.00;35.67;;;;;9.87;67.48;-19476.38;6236847;22;45481;-83
2022/12/02 07:33:21;;;;;;;;;41.33;32.33;;;;;9.78;67.58;-19473.81;6240310;22;45445;-83
2022/12/02 07:35:47;;;;;;;;;41.00;35.33;;;;;9.40;67.71;-19463.81;6213853;22;45544;-83
2022/12/02 07:38:12;;;;;;;;;39.33;32.00;;;;;9.29;67.51;-19461.13;6240361;22;45600;-82
2022/12/02 07:40:38;;;;;;;;;36.67;32.00;;;;;9.79;67.48;-19474.09;6268629;22;46808;-83
2022/12/02 07:43:04;;;;;;;;;43.67;35.67;;;;;9.52;67.66;-19467.19;6336831;22;45589;-82
2022/12/02 07:45:30;;;;;;;;;41.67;34.67;;;;;9.58;68.05;-19468.56;6336729;22;45281;-84
2022/12/02 07:47:55;;;;;;;;;46.67;37.67;;;;;9.54;68.06;-19467.59;6336412;22;45553;-83
2022/12/02 07:50:20;;;;;;;;;46.33;37.67;;;;;8.54;67.86;-19441.13;6336183;22;45451;-84
2022/12/02 07:55:52;;;;;;;;;48.33;37.67;;;;;8.17;68.23;-19431.38;6336607;22;45387;-83
2022/12/02 07:59:23;;;;;;;;;;;;;;;;;;;;;
2022/12/02 08:01:44;;;;;;;;;49.00;39.67;;;;;8.23;67.99;-19433.13;6332240;22;45449;-82
2022/12/02 08:04:09;;;;;;;;;40.33;34.67;;;;;9.19;68.09;-19458.41;6335582;22;45402;-82
2022/12/02 08:06:35;;;;;;;;;45.67;35.33;;;;;9.27;68.07;-19460.44;6335073;22;45474;-82
2022/12/02 08:09:00;;;;;;;;;46.67;37.00;;;;;9.10;68.03;-19456.00;6336642;22;45746;-82
2022/12/02 08:11:25;;;;;;;;;41.00;32.00;;;;;9.77;67.96;-19473.56;6336305;22;53313;-80
2022/12/02 08:13:51;;;;;;;;;44.33;38.00;;;;;9.88;68.15;-19476.50;6336800;22;45295;-83
2022/12/02 08:16:16;;;;;;;;;49.67;37.33;;;;;9.58;68.09;-19468.56;6336318;22;45466;-83
2022/12/02 08:18:41;;;;;;;;;45.67;37.33;;;;;9.88;68.18;-19476.66;6337003;22;46223;-82
2022/12/02 08:21:07;;;;;;;;;47.67;37.00;;;;;9.88;68.21;-19476.66;6335954;22;45508;-82
2022/12/02 08:23:32;;;;;;;;;47.67;34.00;;;;;9.61;68.22;-19469.38;6336557;22;45735;-83
2022/12/02 08:25:57;;;;;;;;;49.00;38.67;;;;;9.47;68.07;-19465.84;6337057;22;45682;-84
2022/12/02 08:28:23;;;;;;;;;46.00;37.00;;;;;9.58;68.51;-19468.69;6336495;22;49400;-84
2022/12/02 08:30:48;;;;;;;;;51.67;38.00;;;;;9.50;68.30;-19466.53;6335909;22;45453;-85
2022/12/02 08:35:54;;;;;;;;;47.00;37.67;;;;;9.91;68.62;-19477.47;6365944;22;58375;-81
2022/12/02 08:38:20;;;;;;;;;49.33;39.00;;;;;9.81;68.29;-19474.63;6367408;22;46074;-82
2022/12/02 08:40:57;;;;;;;;;48.33;38.00;;;;;9.69;68.48;-19471.53;6367690;22;45335;-81
2022/12/02 08:43:23;;;;;;;;;54.00;40.67;;;;;8.85;68.29;-19449.38;6365881;22;45404;-82
2022/12/02 08:45:48;;;;;;;;;42.00;34.67;;;;;9.03;68.25;-19454.09;6368773;22;45434;-80
2022/12/02 08:48:13;;;;;;;;;47.33;36.67;;;;;9.42;68.14;-19464.50;6366436;22;47511;-81
2022/12/02 08:50:39;;;;;;;;;44.00;36.00;;;;;9.79;68.50;-19474.22;6368292;22;45332;-81
2022/12/02 08:53:04;;;;;;;;;49.75;38.50;;;;;9.71;68.49;-19472.19;6366019;22;45374;-81
2022/12/02 08:55:41;;;;;;;;;44.00;36.00;;;;;9.57;68.37;-19468.41;6368427;22;45290;-81
2022/12/02 08:58:22;;;;;;;;;49.67;40.00;;;;;8.95;68.24;-19452.06;6368436;22;45442;-81
2022/12/02 09:00:48;;;;;;;;;53.50;40.75;;;;;8.79;68.10;-19447.75;6367122;22;45229;-81
2022/12/02 09:03:45;;;;;;;;;;;;;;;;;;;;;
2022/12/02 09:06:11;;;;;;;;;39.00;34.67;;;;;8.16;68.27;-19431.09;6364915;22;61899;-83
2022/12/02 09:08:36;;;;;;;;;51.00;39.33;;;;;8.21;68.22;-19432.47;6364903;22;46287;-81
2022/12/02 09:11:10;;;;;;;;;42.33;36.33;;;;;8.09;68.19;-19429.34;6367565;22;45665;-82
2022/12/02 09:13:36;;;;;;;;;42.50;35.50;;;;;9.14;68.32;-19457.06;6367932;22;45434;-82
2022/12/02 09:16:23;;;;;;;;;53.25;40.00;;;;;9.92;68.47;-19477.72;6367647;22;45401;-81
2022/12/02 09:18:49;;;;;;;;;50.00;39.33;;;;;9.94;68.46;-19478.28;6368325;22;46129;-81
2022/12/02 09:21:14;;;;;;;;;49.50;36.75;;;;;9.94;68.52;-19478.28;6366583;22;45734;-81
2022/12/02 09:23:40;;;;;;;;;51.75;40.00;;;;;9.58;68.25;-19468.69;6368201;22;45406;-81
2022/12/02 09:26:05;;;;;;;;;51.50;41.00;;;;;9.94;68.51;-19478.13;6368425;22;45469;-82
2022/12/02 09:28:31;;;;;;;;;52.50;43.25;;;;;9.93;68.08;-19478.00;6368119;22;45645;-82
2022/12/02 09:31:05;;;;;;;;;50.00;39.33;;;;;9.73;68.50;-19472.72;6367396;22;45359;-81
2022/12/02 09:33:30;;;;;;;;;55.00;42.25;;;;;9.96;68.36;-19478.53;6367411;22;45523;-82
2022/12/02 09:35:56;;;;;;;;;51.33;38.00;;;;;9.74;68.17;-19472.88;6336026;22;45481;-83
2022/12/02 09:38:21;;;;;;;;;54.33;42.00;;;;;9.92;68.13;-19477.72;6335819;22;46003;-82
2022/12/02 09:40:46;;;;;;;;;51.00;38.00;;;;;9.93;68.12;-19477.88;6335813;22;45279;-83
2022/12/02 09:43:13;;;;;;;;;38.67;34.67;;;;;9.83;68.20;-19475.16;6335900;22;45336;-82
2022/12/02 09:45:40;;;;;;;;;47.50;38.75;;;;;9.26;67.88;-19460.31;6336306;22;45386;-81
2022/12/02 09:48:06;;;;;;;;;52.50;40.75;;;;;9.93;68.06;-19478.00;6307780;22;45421;-80
2022/12/02 09:50:32;;;;;;;;;48.25;37.50;;;;;9.83;68.41;-19475.31;6335220;22;45382;-79
2022/12/02 09:53:06;;;;;;;;;42.67;35.67;;;;;9.96;68.13;-19478.53;6336136;22;45338;-79
2022/12/02 09:55:32;;;;;;;;;50.25;40.50;;;;;9.96;68.25;-19478.53;6336326;22;45423;-80
2022/12/02 09:58:10;;;;;;;;;51.00;39.00;;;;;9.88;67.88;-19476.66;6335631;22;46843;-80
2022/12/02 10:00:36;;;;;;;;;51.33;38.00;;;;;9.68;68.11;-19471.25;6335602;22;45310;-80
2022/12/02 10:03:01;;;;;;;;;49.33;39.33;;;;;9.96;68.02;-19478.69;6336131;22;45205;-79
2022/12/02 10:05:28;;;;;;;;;50.33;38.67;;;;;9.97;68.24;-19478.94;6307207;22;45501;-80
2022/12/02 10:07:56;;;;;;;;;53.00;36.33;;;;;9.98;68.17;-19479.22;6335847;22;45458;-81
2022/12/02 10:10:33;;;;;;;;;54.50;42.50;;;;;9.59;68.19;-19468.97;6335199;22;45393;-82
2022/12/02 10:12:59;;;;;;;;;42.00;35.00;;;;;9.66;68.03;-19470.84;6306059;22;45608;-81
2022/12/02 10:15:28;;;;;;;;;54.67;41.00;;;;;10.01;68.15;-19480.03;6334877;22;45469;-82
2022/12/02 10:17:54;;;;;;;;;51.25;41.00;;;;;9.79;68.14;-19474.22;6334937;22;45342;-82
2022/12/02 10:20:26;;;;;;;;;50.50;41.00;;;;;10.00;67.71;-19479.63;6334639;22;45319;-82
2022/12/02 10:23:21;;;;;;;;;53.33;41.00;;;;;8.91;67.68;-19451.00;6336148;22;45282;-83
2022/12/02 10:25:57;;;;;;;;;54.00;41.75;;;;;9.99;67.93;-19479.34;6336735;22;45307;-81
2022/12/02 10:28:32;;;;;;;;;52.67;42.33;;;;;9.96;67.84;-19478.69;6333638;22;46660;-82
2022/12/02 10:31:09;;;;;;;;;53.75;42.75;;;;;9.90;67.81;-19477.06;6336825;22;45363;-82
2022/12/02 10:33:46;;;;;;;;;54.50;42.00;;;;;9.50;68.04;-19466.53;6336455;22;45379;-82
2022/12/02 10:36:11;;;;;;;;;55.75;44.25;;;;;9.55;67.96;-19467.75;6309032;22;45460;-82
2022/12/02 10:38:39;;;;;;;;;48.67;40.67;;;;;9.78;67.81;-19473.81;6308916;22;47519;-82
2022/12/02 10:41:14;;;;;;;;;53.75;40.50;;;;;10.06;68.01;-19481.25;6336117;22;45413;-81
2022/12/02 10:44:11;;;;;;;;;54.00;41.33;;;;;10.09;68.19;-19482.19;6307993;22;45390;-82
2022/12/02 10:46:36;;;;;;;;;49.67;39.00;;;;;9.80;67.74;-19474.34;6327520;22;45463;-82
2022/12/02 10:49:21;;;;;;;;;48.75;39.75;;;;;10.14;67.30;-19483.41;6334467;22;48630;-81
2022/12/02 10:51:46;;;;;;;;;50.33;41.67;;;;;9.79;67.61;-19474.22;6307950;22;45344;-81
2022/12/02 10:54:22;;;;;;;;;55.25;41.75;;;;;10.18;67.41;-19484.34;6333383;22;45378;-81
2022/12/02 10:59:15;;;;;;;;;50.75;40.25;;;;;9.59;67.51;-19468.97;6177753;23;45394;-82
2022/12/02 11:01:43;;;;;;;;;56.25;43.50;;;;;10.16;67.77;-19483.94;6176988;22;45423;-81
2022/12/02 11:04:13;;;;;;;;;57.25;42.00;;;;;9.37;67.82;-19463.16;6176412;23;45426;-82
2022/12/02 11:06:53;;;;;;;;;55.50;43.50;;;;;9.60;67.39;-19469.09;6178060;23;45484;-82
2022/12/02 11:09:23;;;;;;;;;51.67;41.00;;;;;9.23;67.58;-19459.38;6177187;23;46154;-82
2022/12/02 11:11:51;;;;;;;;;50.25;41.50;;;;;10.21;67.26;-19485.28;6177599;22;45318;-81
2022/12/02 11:14:38;;;;;;;;;48.33;36.67;;;;;10.20;67.17;-19485.03;6176648;23;45424;-81
2022/12/02 11:17:09;;;;;;;;;51.67;42.00;;;;;10.23;66.83;-19485.69;6177038;22;45272;-80
2022/12/02 11:29:16;;;;;;;;;47.25;40.25;;;;;10.29;67.00;-19487.31;6268507;22;45617;-82
2022/12/02 11:31:58;;;;;;;;;50.75;39.25;;;;;8.98;66.84;-19452.75;6269867;22;46261;-83
2022/12/02 11:34:41;;;;;;;;;55.25;44.00;;;;;10.06;66.88;-19481.38;6271076;22;45586;-80
2022/12/02 11:37:28;;;;;;;;;51.33;41.00;;;;;10.28;67.14;-19487.03;6269377;22;45467;-80
2022/12/02 11:39:53;;;;;;;;;56.00;41.67;;;;;10.27;67.13;-19486.91;6269897;22;45374;-82
2022/12/02 11:42:25;;;;;;;;;48.00;36.67;;;;;10.23;67.03;-19485.84;6270620;22;46304;-87
2022/12/02 11:45:11;;;;;;;;;50.00;41.67;;;;;10.01;66.87;-19479.88;6270473;22;45448;-89
2022/12/02 11:48:27;;;;;;;;;48.67;38.33;;;;;9.94;67.39;-19478.13;6273202;22;45309;-84
2022/12/02 11:50:53;;;;;;;;;54.00;39.33;;;;;10.20;67.22;-19484.88;6271661;22;45576;-82
2022/12/02 11:53:22;;;;;;;;;41.67;36.00;;;;;9.42;67.45;-19464.38;6270502;22;46902;-82
2022/12/02 11:56:19;;;;;;;;;50.67;41.67;;;;;8.73;67.26;-19446.25;6244325;22;45496;-85
2022/12/02 11:58:45;;;;;;;;;50.00;40.33;;;;;9.32;67.35;-19461.81;6188107;22;45622;-82
2022/12/02 12:20:00;;;;;;;;;51.67;39.00;;;;;8.73;68.47;-19446.13;6206082;22;45380;-83
2022/12/02 12:22:42;;;;;;;;;43.00;36.33;;;;;9.83;68.87;-19475.31;6205383;22;45448;-84
2022/12/02 12:25:49;;;;;;;;;;;;;;;;;;;;;
2022/12/02 12:28:55;;;;;;;;;50.00;40.67;;;;;10.06;69.30;-19481.38;6119414;22;73991;-84
2022/12/02 12:34:19;;;;;;;;;52.00;38.33;;;;;9.62;69.66;-19469.63;6205869;22;45706;-84
2022/12/02 12:37:04;;;;;;;;;43.00;35.33;;;;;8.52;70.31;-19440.59;6179703;22;45333;-84
2022/12/02 12:39:32;;;;;;;;;61.50;43.75;;;;;8.52;70.57;-19440.72;6206783;22;47057;-83
2022/12/02 12:42:04;;;;;;;;;50.00;40.67;;;;;8.44;70.69;-19438.56;6205029;22;45329;-83
2022/12/02 12:44:30;;;;;;;;;50.33;40.67;;;;;9.61;71.16;-19469.50;6172647;23;45532;-84
2022/12/02 12:46:59;;;;;;;;;52.00;41.75;;;;;8.34;71.43;-19435.97;6173357;23;45587;-83
2022/12/02 12:49:25;;;;;;;;;52.75;43.00;;;;;9.97;71.57;-19478.81;6173366;23;45417;-83
2022/12/02 12:51:50;;;;;;;;;50.00;42.00;;;;;8.28;71.12;-19434.22;6173162;23;45440;-83
2022/12/02 12:54:17;;;;;;;;;50.25;41.25;;;;;8.81;70.70;-19448.28;6173101;23;45830;-83
2022/12/02 12:56:42;;;;;;;;;59.50;46.25;;;;;9.77;70.59;-19473.69;6173799;23;45577;-83
2022/12/02 12:59:07;;;;;;;;;58.25;43.50;;;;;9.34;70.78;-19462.34;6173070;23;45484;-83
2022/12/02 13:01:33;;;;;;;;;51.33;41.00;;;;;8.94;70.16;-19451.66;6173702;23;45399;-82
2022/12/02 13:03:58;;;;;;;;;48.00;40.00;;;;;9.56;70.13;-19468.16;6173393;23;45284;-83